Time;durP1;ratioP1;P1;durP2;ratioP2;P2;SDS_P1;SDS_P2;PMS_P1;PMS_P2;Temp;Humidity;BMP_temperature;BMP_pressure;BME280_temperature;BME280_humidity;BME280_pressure;Samples;Min_cycle;Max_cycle;Signal;HPM_P1;HPM_P2
2023/01/08 00:01:57;;;;;;;32.43;19.43;;;;;;;3.57;100.00;60274.75;6294315;28;20261;-68
2023/01/08 00:04:59;;;;;;;26.40;18.77;;;;;;;2.94;100.00;60274.75;6294486;28;20228;-68
2023/01/08 00:08:01;;;;;;;24.87;18.60;;;;;;;-144.22;100.00;60274.75;6292114;28;20259;-69
2023/01/08 00:11:03;;;;;;;28.80;19.80;;;;;;;11.36;100.00;60274.75;6279343;28;20233;-69
2023/01/08 00:14:05;;;;;;;27.63;19.80;;;;;;;-144.22;100.00;60274.75;6273579;28;20714;-69
2023/01/08 00:17:07;;;;;;;23.90;17.63;;;;;;;3.09;100.00;60274.75;6290987;28;20236;-69
2023/01/08 00:20:10;;;;;;;33.77;19.63;;;;;;;3.01;100.00;60274.75;6292616;28;20240;-68
2023/01/08 00:23:13;;;;;;;32.47;19.27;;;;;;;-144.22;100.00;60274.75;6271356;28;20307;-69
2023/01/08 00:26:15;;;;;;;33.47;22.83;;;;;;;11.36;100.00;60274.75;6293494;28;20230;-68
2023/01/08 00:29:17;;;;;;;28.77;19.90;;;;;;;2.97;100.00;60274.75;6290694;28;20237;-69
2023/01/08 00:32:19;;;;;;;24.00;18.17;;;;;;;-144.22;100.00;60274.75;6291192;28;20237;-68
2023/01/08 00:35:21;;;;;;;40.07;22.17;;;;;;;-144.22;100.00;60274.75;6276647;28;20597;-69
2023/01/08 00:38:27;;;;;;;31.63;21.43;;;;;;;2.97;100.00;60274.75;6274456;28;20304;-69
2023/01/08 00:41:29;;;;;;;37.43;21.97;;;;;;;-144.22;100.00;60274.75;6290407;28;20233;-69
2023/01/08 00:44:31;;;;;;;35.33;22.80;;;;;;;3.25;100.00;60274.75;6289769;28;20275;-69
2023/01/08 00:47:33;;;;;;;30.87;22.83;;;;;;;3.00;100.00;60274.75;6292497;28;20233;-69
2023/01/08 00:50:36;;;;;;;32.20;21.63;;;;;;;-144.22;100.00;60274.75;6270560;28;20222;-69
2023/01/08 00:53:38;;;;;;;36.37;23.13;;;;;;;2.96;100.00;60274.75;6293608;28;20730;-69
2023/01/08 00:56:40;;;;;;;29.20;22.33;;;;;;;2.96;100.00;60274.75;6272040;28;20330;-69
2023/01/08 00:59:42;;;;;;;33.70;22.10;;;;;;;2.94;100.00;60274.75;6291050;28;20694;-69
2023/01/08 01:02:44;;;;;;;31.23;21.83;;;;;;;2.94;100.00;60274.75;6270472;28;20226;-69
2023/01/08 01:05:46;;;;;;;27.07;19.50;;;;;;;3.01;100.00;60274.75;6287236;28;20230;-69
2023/01/08 01:08:48;;;;;;;30.03;21.10;;;;;;;3.01;100.00;60274.75;6279222;28;20231;-69
2023/01/08 01:11:51;;;;;;;29.33;21.07;;;;;;;2.96;100.00;60274.75;6272418;28;20234;-69
2023/01/08 01:14:53;;;;;;;26.40;20.07;;;;;;;3.09;100.00;60274.75;6288088;28;20666;-69
2023/01/08 01:17:55;;;;;;;32.37;21.53;;;;;;;3.09;100.00;60274.75;6291722;28;20232;-68
2023/01/08 01:20:57;;;;;;;27.00;20.37;;;;;;;3.09;100.00;60274.75;6272125;28;20241;-69
2023/01/08 01:24:04;;;;;;;29.60;20.40;;;;;;;2.98;100.00;78218.84;6286733;28;20538;-69
2023/01/08 01:27:06;;;;;;;33.17;22.47;;;;;;;6.17;100.00;60274.75;6275519;28;20242;-68
2023/01/08 01:30:09;;;;;;;31.13;21.20;;;;;;;-144.22;100.00;60274.75;6270502;28;20222;-69
2023/01/08 01:33:11;;;;;;;30.83;21.97;;;;;;;-144.22;100.00;60274.75;6289127;28;20230;-69
2023/01/08 01:36:14;;;;;;;31.87;22.47;;;;;;;-144.22;100.00;60274.75;6286736;28;20332;-68
2023/01/08 01:39:16;;;;;;;35.83;21.77;;;;;;;-144.22;100.00;60274.75;6289667;28;20229;-68
2023/01/08 01:45:41;;;;;;;32.80;20.60;;;;;;;-144.22;100.00;60274.75;6271894;28;20229;-69
2023/01/08 01:48:44;;;;;;;33.33;21.37;;;;;;;2.72;100.00;103558.78;6288777;28;20224;-69
2023/01/08 01:51:49;;;;;;;33.80;21.07;;;;;;;-144.22;100.00;60274.75;6290874;28;20234;-69
2023/01/08 01:54:52;;;;;;;42.83;22.13;;;;;;;-144.22;100.00;60274.75;6286621;28;20249;-68
2023/01/08 01:58:04;;;;;;;36.53;22.03;;;;;;;-144.22;100.00;60274.75;6254436;28;20222;-68
2023/01/08 02:01:08;;;;;;;51.87;23.60;;;;;;;-144.22;100.00;60274.75;6274207;28;20236;-68
2023/01/08 02:04:12;;;;;;;37.90;20.27;;;;;;;-144.22;100.00;60274.75;6293758;28;20259;-69
2023/01/08 02:07:23;;;;;;;30.20;19.47;;;;;;;-144.22;100.00;60274.75;6289942;28;20230;-68
2023/01/08 02:10:31;;;;;;;37.57;20.90;;;;;;;-144.22;100.00;60274.75;6288533;28;20238;-69
2023/01/08 02:13:37;;;;;;;40.27;19.63;;;;;;;-144.22;100.00;60274.75;6289201;28;20330;-69
2023/01/08 02:16:54;;;;;;;35.03;21.27;;;;;;;-144.22;100.00;60274.75;6293226;28;20601;-69
2023/01/08 02:20:03;;;;;;;32.00;20.60;;;;;;;-144.22;100.00;60274.75;6291356;28;20219;-69
2023/01/08 02:23:20;;;;;;;50.00;21.63;;;;;;;-144.22;100.00;60274.75;6287171;28;20236;-68
2023/01/08 02:26:25;;;;;;;43.17;21.67;;;;;;;2.62;100.00;60274.75;6276425;28;20722;-69
2023/01/08 02:29:28;;;;;;;33.93;20.07;;;;;;;3.58;100.00;60274.75;6293155;28;20273;-69
2023/01/08 02:32:38;;;;;;;31.23;20.57;;;;;;;2.26;100.00;60274.75;6273972;28;20237;-69
2023/01/08 02:35:44;;;;;;;38.60;20.73;;;;;;;2.26;100.00;60274.75;6289916;28;20387;-69
2023/01/08 02:39:14;;;;;;;35.77;19.93;;;;;;;2.24;100.00;60274.75;6293402;28;20708;-68
2023/01/08 02:42:18;;;;;;;38.87;20.83;;;;;;;3.58;100.00;60274.75;6278543;28;20222;-69
2023/01/08 02:45:27;;;;;;;37.37;20.43;;;;;;;3.58;100.00;60274.75;6290247;28;20237;-69
2023/01/08 02:48:40;;;;;;;31.83;19.47;;;;;;;2.23;100.00;60274.75;6292692;28;20237;-69
2023/01/08 02:51:50;;;;;;;28.77;18.40;;;;;;;2.23;100.00;60274.75;6291082;28;20403;-69
2023/01/08 02:54:54;;;;;;;32.23;18.73;;;;;;;2.21;100.00;60274.75;6275927;28;20248;-69
2023/01/08 02:57:57;;;;;;;29.13;18.17;;;;;;;-144.22;100.00;60274.75;6275672;28;20239;-69
2023/01/08 03:01:05;;;;;;;32.30;18.87;;;;;;;-144.22;100.00;60274.75;6292582;28;20213;-69
2023/01/08 03:04:20;;;;;;;28.23;17.80;;;;;;;2.24;100.00;60274.75;6296045;28;20241;-69
2023/01/08 03:07:22;;;;;;;31.70;18.47;;;;;;;2.24;100.00;60274.75;6293036;28;20330;-69
2023/01/08 03:10:27;;;;;;;28.50;16.50;;;;;;;3.58;100.00;60274.75;6292648;28;20809;-69
2023/01/08 03:13:36;;;;;;;31.93;18.90;;;;;;;3.58;100.00;60274.75;6271812;28;20650;-69
2023/01/08 03:16:44;;;;;;;33.67;19.53;;;;;;;2.28;100.00;60274.75;6279379;28;20235;-69
2023/01/08 03:19:54;;;;;;;32.23;19.40;;;;;;;2.24;100.00;60274.75;6263709;28;20310;-69
2023/01/08 03:23:01;;;;;;;29.63;19.77;;;;;;;2.21;100.00;60274.75;6289838;28;20715;-69
2023/01/08 03:26:05;;;;;;;36.30;20.07;;;;;;;2.24;100.00;60274.75;6275368;28;20235;-69
2023/01/08 03:29:12;;;;;;;30.20;18.70;;;;;;;2.24;100.00;60274.75;6287444;28;20305;-69
2023/01/08 03:32:16;;;;;;;35.50;21.30;;;;;;;2.28;100.00;60274.75;6288825;28;20234;-69
2023/01/08 03:35:21;;;;;;;34.47;20.00;;;;;;;2.28;100.00;60274.75;6293534;28;20241;-69
2023/01/08 03:38:33;;;;;;;38.00;20.90;;;;;;;3.58;100.00;60274.75;6292617;28;20669;-69
2023/01/08 03:41:36;;;;;;;37.93;20.77;;;;;;;2.22;100.00;60274.75;6278679;28;20230;-69
2023/01/08 03:44:38;;;;;;;42.77;22.13;;;;;;;-144.22;100.00;60274.75;6273804;28;20233;-69
2023/01/08 03:47:41;;;;;;;38.73;22.40;;;;;;;-144.22;100.00;60274.75;6276002;28;20246;-69
2023/01/08 03:50:44;;;;;;;34.23;20.87;;;;;;;2.19;100.00;60274.75;6291627;28;20233;-69
2023/01/08 03:53:48;;;;;;;38.00;20.70;;;;;;;2.20;100.00;60274.75;6276003;28;20225;-69
2023/01/08 03:56:50;;;;;;;43.10;21.00;;;;;;;2.17;100.00;60274.75;6273724;28;20364;-69
2023/01/08 03:59:52;;;;;;;33.63;20.63;;;;;;;2.18;100.00;60274.75;6274730;28;20223;-69
2023/01/08 04:02:54;;;;;;;46.50;20.37;;;;;;;3.49;100.00;60274.75;6292799;28;20238;-69
2023/01/08 04:05:59;;;;;;;40.57;21.87;;;;;;;2.28;100.00;60274.75;6274463;28;20227;-68
2023/01/08 04:09:02;;;;;;;47.37;22.47;;;;;;;2.15;100.00;60274.75;6289888;28;20227;-68
2023/01/08 04:12:04;;;;;;;42.57;21.37;;;;;;;6.17;100.00;60274.75;6295210;28;20655;-69
2023/01/08 04:15:07;;;;;;;41.67;22.17;;;;;;;2.15;100.00;60274.75;6297597;28;20367;-68
2023/01/08 04:18:09;;;;;;;47.13;23.30;;;;;;;2.13;100.00;60274.75;6292944;28;20222;-69
2023/01/08 04:21:11;;;;;;;36.73;20.87;;;;;;;-144.22;100.00;60274.75;6296524;28;20205;-69
2023/01/08 04:24:13;;;;;;;62.27;23.70;;;;;;;2.28;100.00;60274.75;6293218;28;20613;-68
2023/01/08 04:27:15;;;;;;;57.93;24.23;;;;;;;2.10;100.00;60274.75;6276179;28;20233;-68
2023/01/08 04:30:17;;;;;;;53.13;23.67;;;;;;;2.08;100.00;60274.75;6290939;28;20627;-69
2023/01/08 04:33:19;;;;;;;45.73;23.17;;;;;;;2.28;100.00;60274.75;6288707;28;20313;-68
2023/01/08 04:36:21;;;;;;;63.17;25.90;;;;;;;-144.22;100.00;60274.75;6278816;28;20251;-69
2023/01/08 04:39:23;;;;;;;40.03;22.73;;;;;;;2.09;100.00;60274.75;6290616;28;20218;-69
2023/01/08 04:42:25;;;;;;;34.47;20.57;;;;;;;3.58;100.00;60274.75;6271054;28;20620;-69
2023/01/08 04:45:27;;;;;;;49.93;22.63;;;;;;;6.17;100.00;60274.75;6292280;28;20773;-68
2023/01/08 04:48:30;;;;;;;43.83;23.90;;;;;;;2.08;100.00;60274.75;6290638;28;20685;-69
2023/01/08 04:51:32;;;;;;;48.43;23.90;;;;;;;11.36;100.00;60274.75;6289481;28;20689;-69
2023/01/08 04:54:34;;;;;;;39.13;21.03;;;;;;;6.17;100.00;60274.75;6290046;28;20719;-69
2023/01/08 04:57:36;;;;;;;45.37;22.87;;;;;;;6.17;100.00;60274.75;6267810;28;20592;-69
2023/01/08 05:00:39;;;;;;;53.30;25.07;;;;;;;-144.22;100.00;60274.75;6293625;28;20239;-69
2023/01/08 05:03:40;;;;;;;39.07;21.73;;;;;;;-144.22;100.00;60274.75;6274209;28;20595;-69
2023/01/08 05:06:42;;;;;;;41.93;21.47;;;;;;;2.11;100.00;60274.75;6292426;28;20238;-69
2023/01/08 05:09:44;;;;;;;43.87;23.07;;;;;;;3.58;100.00;60274.75;6272080;28;20219;-69
2023/01/08 05:12:46;;;;;;;47.30;23.13;;;;;;;6.17;100.00;60274.75;6288713;28;20557;-68
2023/01/08 05:15:48;;;;;;;40.73;21.67;;;;;;;3.58;100.00;60274.75;6290496;28;20315;-69
2023/01/08 05:18:50;;;;;;;42.33;21.13;;;;;;;3.58;100.00;60274.75;6272795;28;20225;-69
2023/01/08 05:21:52;;;;;;;37.87;21.00;;;;;;;-144.22;100.00;60274.75;6290661;28;20225;-69
2023/01/08 05:24:54;;;;;;;37.77;20.63;;;;;;;3.58;100.00;60274.75;6290160;28;20222;-68
2023/01/08 05:27:56;;;;;;;52.13;22.47;;;;;;;3.58;100.00;60274.75;6293399;28;20233;-69
2023/01/08 05:30:59;;;;;;;42.20;21.13;;;;;;;2.01;100.00;60274.75;6285584;28;20226;-69
2023/01/08 05:34:01;;;;;;;55.60;21.63;;;;;;;2.28;100.00;60274.75;6290506;28;20251;-68
2023/01/08 05:37:03;;;;;;;41.70;22.50;;;;;;;4.87;100.00;60274.75;6290756;28;20719;-69
2023/01/08 05:40:05;;;;;;;37.77;20.90;;;;;;;6.17;100.00;60274.75;6289474;28;20244;-69
2023/01/08 05:43:07;;;;;;;50.03;22.50;;;;;;;-144.22;100.00;60274.75;6291341;28;20227;-69
2023/01/08 05:46:09;;;;;;;37.87;20.70;;;;;;;-144.22;100.00;60274.75;6288671;28;20236;-68
2023/01/08 05:49:11;;;;;;;53.20;22.33;;;;;;;-144.22;100.00;60274.75;6288637;28;20233;-69
2023/01/08 05:52:14;;;;;;;42.70;22.23;;;;;;;-144.22;100.00;60274.75;6295764;28;20225;-69
2023/01/08 05:55:16;;;;;;;40.93;22.60;;;;;;;-144.22;100.00;60274.75;6295143;28;20222;-69
2023/01/08 05:58:18;;;;;;;34.50;20.87;;;;;;;2.28;100.00;60274.75;6275587;28;20253;-69
2023/01/08 06:01:21;;;;;;;45.13;20.73;;;;;;;2.28;100.00;60274.75;6278614;28;20231;-69
2023/01/08 06:04:23;;;;;;;41.73;22.60;;;;;;;-144.22;100.00;60274.75;6275880;28;20244;-69
2023/01/08 06:07:28;;;;;;;45.50;21.77;;;;;;;2.28;100.00;60274.75;6285676;28;20254;-69
2023/01/08 06:10:30;;;;;;;38.83;21.53;;;;;;;2.28;100.00;60274.75;6276897;28;20778;-69
2023/01/08 06:13:34;;;;;;;35.20;19.40;;;;;;;1.95;100.00;60274.75;6294844;28;20229;-69
2023/01/08 06:16:36;;;;;;;38.20;20.63;;;;;;;-144.22;100.00;60274.75;6296345;28;20705;-69
2023/01/08 06:19:38;;;;;;;32.47;19.03;;;;;;;-144.22;100.00;60274.75;6276058;28;20232;-69
2023/01/08 06:22:40;;;;;;;49.30;22.30;;;;;;;1.99;100.00;60274.75;6275776;28;20226;-70
2023/01/08 06:25:42;;;;;;;32.60;18.57;;;;;;;2.00;100.00;60274.75;6295114;28;20608;-70
2023/01/08 06:28:44;;;;;;;43.50;20.17;;;;;;;-144.22;100.00;60274.75;6289478;28;20229;-69
2023/01/08 06:31:46;;;;;;;33.90;18.87;;;;;;;-144.22;100.00;60274.75;6291013;28;20606;-69
2023/01/08 06:34:48;;;;;;;30.80;17.90;;;;;;;-144.22;100.00;60274.75;6280060;28;20353;-69
2023/01/08 06:37:50;;;;;;;31.50;18.17;;;;;;;-144.22;100.00;60274.75;6293712;28;20317;-69
2023/01/08 06:40:52;;;;;;;73.47;21.87;;;;;;;-144.22;100.00;60274.75;6275092;28;20256;-69
2023/01/08 06:43:54;;;;;;;44.07;19.63;;;;;;;-144.22;100.00;60274.75;6292821;28;20230;-69
2023/01/08 06:46:56;;;;;;;36.20;19.87;;;;;;;1.95;100.00;60274.75;6280934;28;20294;-69
2023/01/08 06:49:58;;;;;;;31.93;17.60;;;;;;;-144.22;100.00;60274.75;6289312;28;20593;-69
2023/01/08 06:53:00;;;;;;;28.90;17.30;;;;;;;2.12;100.00;60274.75;6294806;28;20608;-69
2023/01/08 06:56:03;;;;;;;65.10;20.50;;;;;;;-144.22;100.00;60274.75;6291369;28;20262;-69
2023/01/08 06:59:05;;;;;;;27.00;16.77;;;;;;;-144.22;100.00;60274.75;6291995;28;20230;-69
2023/01/08 07:02:15;;;;;;;61.77;22.87;;;;;;;11.36;100.00;60274.75;6292004;28;20229;-69
2023/01/08 07:05:18;;;;;;;55.27;19.03;;;;;;;-144.22;100.00;60274.75;6295015;28;20248;-69
2023/01/08 07:08:20;;;;;;;56.57;21.93;;;;;;;1.85;100.00;78045.13;6292954;28;20313;-69
2023/01/08 07:11:22;;;;;;;34.37;20.27;;;;;;;-144.22;100.00;60274.75;6290769;28;20365;-69
2023/01/08 07:14:24;;;;;;;41.53;20.77;;;;;;;-144.22;100.00;60274.75;6260074;28;20227;-69
2023/01/08 07:17:26;;;;;;;70.27;23.77;;;;;;;1.87;100.00;60274.75;6290587;28;20255;-69
2023/01/08 07:20:28;;;;;;;36.07;20.40;;;;;;;1.95;100.00;60274.75;6293483;28;20245;-69
2023/01/08 07:23:31;;;;;;;51.57;22.27;;;;;;;-144.22;100.00;60274.75;6295743;28;20232;-69
2023/01/08 07:26:33;;;;;;;44.73;20.93;;;;;;;188.01;100.00;60274.75;6268199;28;20226;-69
2023/01/08 07:29:35;;;;;;;47.57;21.80;;;;;;;6.17;100.00;60274.75;6267413;28;20654;-69
2023/01/08 07:32:37;;;;;;;39.83;21.00;;;;;;;-144.22;100.00;60274.75;6266355;28;20720;-69
2023/01/08 07:35:39;;;;;;;59.73;22.80;;;;;;;-144.22;100.00;60274.75;6267429;28;20228;-69
2023/01/08 07:38:42;;;;;;;38.77;19.90;;;;;;;-144.22;100.00;60274.75;6262456;28;20780;-69
2023/01/08 07:41:44;;;;;;;42.10;20.43;;;;;;;-144.22;100.00;60274.75;6264298;28;20289;-70
2023/01/08 07:44:46;;;;;;;46.33;20.30;;;;;;;2.05;100.00;60274.75;6267698;28;20625;-69
2023/01/08 07:47:48;;;;;;;41.60;19.83;;;;;;;2.07;100.00;60274.75;6267123;28;20238;-69
2023/01/08 07:50:50;;;;;;;38.30;19.20;;;;;;;-144.22;100.00;60274.75;6270389;28;20229;-69
2023/01/08 07:53:52;;;;;;;30.63;16.97;;;;;;;-144.22;100.00;60274.75;6267074;28;20731;-69
2023/01/08 07:56:54;;;;;;;38.50;19.37;;;;;;;-144.22;100.00;60274.75;6266486;28;20230;-70
2023/01/08 07:59:56;;;;;;;33.40;17.73;;;;;;;-144.22;100.00;60274.75;6264291;28;20239;-69
2023/01/08 08:03:03;;;;;;;31.30;18.13;;;;;;;-144.22;100.00;60274.75;6267636;28;20238;-70
2023/01/08 08:06:06;;;;;;;32.23;18.70;;;;;;;-144.22;100.00;60274.75;6271519;28;20233;-69
2023/01/08 08:09:08;;;;;;;36.20;19.00;;;;;;;-144.22;100.00;60274.75;6266728;28;20596;-69
2023/01/08 08:12:10;;;;;;;29.87;16.87;;;;;;;3.58;100.00;60274.75;6267799;28;20583;-69
2023/01/08 08:15:13;;;;;;;39.23;17.90;;;;;;;1.89;100.00;60274.75;6266853;28;20226;-69
2023/01/08 08:18:15;;;;;;;101.80;19.73;;;;;;;21.74;100.00;60274.75;6265945;28;20737;-69
2023/01/08 08:21:17;;;;;;;99.63;20.70;;;;;;;1.83;100.00;60274.75;6253684;28;20313;-70
2023/01/08 08:24:19;;;;;;;32.87;16.00;;;;;;;1.81;100.00;60274.75;6268209;28;20379;-69
2023/01/08 08:27:23;;;;;;;27.57;16.73;;;;;;;-144.22;100.00;60274.75;6274016;28;20237;-69
2023/01/08 08:30:26;;;;;;;46.07;17.43;;;;;;;-144.22;100.00;60274.75;6261907;28;20727;-69
2023/01/08 08:33:29;;;;;;;29.07;16.77;;;;;;;-144.22;100.00;60274.75;6264288;28;20632;-70
2023/01/08 08:36:31;;;;;;;28.37;16.57;;;;;;;-144.22;100.00;60274.75;6265731;28;20309;-69
2023/01/08 08:39:33;;;;;;;116.30;22.07;;;;;;;-144.22;100.00;60274.75;6264552;28;20232;-69
2023/01/08 08:42:35;;;;;;;98.57;20.27;;;;;;;-144.22;100.00;60274.75;6264767;28;20596;-70
2023/01/08 08:45:37;;;;;;;113.43;21.23;;;;;;;-144.22;100.00;60274.75;6264725;28;20662;-69
2023/01/08 08:48:39;;;;;;;35.43;17.07;;;;;;;-144.22;100.00;60274.75;6264083;28;20221;-69
2023/01/08 08:51:41;;;;;;;118.73;23.57;;;;;;;-144.22;100.00;60274.75;6263149;28;20703;-69
2023/01/08 08:54:43;;;;;;;115.07;21.80;;;;;;;-144.22;100.00;60274.75;6266036;28;20223;-69
2023/01/08 08:57:46;;;;;;;25.13;15.43;;;;;;;1.95;100.00;60274.75;6264609;28;20232;-69
2023/01/08 09:00:48;;;;;;;31.63;16.53;;;;;;;-144.22;100.00;60274.75;6263103;28;20316;-70
2023/01/08 09:03:50;;;;;;;30.53;15.67;;;;;;;-144.22;100.00;60274.75;6266130;28;20222;-69
2023/01/08 09:06:52;;;;;;;29.37;16.60;;;;;;;-144.22;100.00;60274.75;6260698;28;20544;-69
2023/01/08 09:09:54;;;;;;;81.30;20.73;;;;;;;3.58;100.00;60274.75;6265471;28;20278;-69
2023/01/08 09:12:56;;;;;;;27.53;15.07;;;;;;;-144.22;100.00;60274.75;6261126;28;20256;-69
2023/01/08 09:15:59;;;;;;;43.47;17.13;;;;;;;1.84;100.00;60274.75;6264427;28;20620;-69
2023/01/08 09:19:01;;;;;;;28.20;16.80;;;;;;;-144.22;100.00;60274.75;6264255;28;20224;-69
2023/01/08 09:22:04;;;;;;;19.57;13.17;;;;;;;-144.22;100.00;60274.75;6264826;28;20248;-69
2023/01/08 09:25:06;;;;;;;34.17;15.60;;;;;;;11.36;100.00;60274.75;6265194;28;20237;-69
2023/01/08 09:28:11;;;;;;;33.63;17.33;;;;;;;-144.22;100.00;60274.75;6282898;28;20228;-69
2023/01/08 09:31:13;;;;;;;37.90;17.73;;;;;;;-144.22;100.00;60274.75;6286698;28;20415;-70
2023/01/08 09:34:15;;;;;;;54.37;19.87;;;;;;;11.36;100.00;60274.75;6269053;28;20232;-70
2023/01/08 09:37:17;;;;;;;40.53;17.43;;;;;;;-144.22;100.00;60274.75;6290788;28;20352;-69
2023/01/08 09:40:27;;;;;;;39.67;17.87;;;;;;;1.87;100.00;60274.75;6271320;28;20719;-69
2023/01/08 09:43:33;;;;;;;30.67;17.17;;;;;;;1.84;100.00;102206.06;6270910;28;20600;-70
2023/01/08 09:46:35;;;;;;;44.93;17.37;;;;;;;-144.22;100.00;60274.75;6291737;28;20308;-69
2023/01/08 09:49:45;;;;;;;34.93;18.20;;;;;;;188.01;100.00;60274.75;6274533;28;20570;-69
2023/01/08 09:52:47;;;;;;;27.93;16.30;;;;;;;-144.22;100.00;60274.75;6288037;28;20584;-69
2023/01/08 09:56:02;;;;;;;40.10;17.33;;;;;;;-144.22;100.00;60274.75;6270187;28;20371;-69
2023/01/08 09:59:17;;;;;;;44.40;18.73;;;;;;;-144.22;100.00;60274.75;6295450;28;20554;-68
2023/01/08 10:02:24;;;;;;;32.90;17.53;;;;;;;-144.22;100.00;60274.75;6304757;28;20320;-68
2023/01/08 10:05:27;;;;;;;32.00;16.40;;;;;;;1.92;100.00;60274.75;6297988;28;20229;-69
2023/01/08 10:08:29;;;;;;;35.37;17.10;;;;;;;1.97;100.00;60274.75;6292558;28;20218;-68
2023/01/08 10:11:43;;;;;;;30.27;16.37;;;;;;;2.12;100.00;60274.75;6293088;28;20363;-69
2023/01/08 10:14:48;;;;;;;47.50;16.23;;;;;;;2.28;100.00;60274.75;6289600;28;20230;-70
2023/01/08 10:18:01;;;;;;;27.17;14.67;;;;;;;-144.22;100.00;60274.75;6275703;28;20723;-69
2023/01/08 10:21:03;;;;;;;29.77;14.73;;;;;;;2.01;100.00;60274.75;6267115;28;20232;-69
2023/01/08 10:24:06;;;;;;;32.40;14.93;;;;;;;2.01;100.00;60274.75;6287300;28;20594;-69
2023/01/08 10:27:15;;;;;;;32.10;15.43;;;;;;;3.58;100.00;60274.75;6287026;28;20249;-69
2023/01/08 10:30:35;;;;;;;26.73;15.30;;;;;;;2.11;100.00;60274.75;6284633;28;20317;-69
2023/01/08 10:33:42;;;;;;;31.03;13.40;;;;;;;3.58;100.00;60274.75;6289450;28;20246;-69
2023/01/08 10:36:44;;;;;;;35.07;14.00;;;;;;;-144.22;100.00;60274.75;6287754;28;20233;-69
2023/01/08 10:39:47;;;;;;;27.53;14.70;;;;;;;3.58;100.00;60274.75;6272665;28;20225;-69
2023/01/08 10:42:51;;;;;;;27.63;14.27;;;;;;;2.14;100.00;60274.75;6274390;28;20237;-69
2023/01/08 10:46:05;;;;;;;38.67;15.13;;;;;;;6.17;100.00;60274.75;6290840;28;20617;-69
2023/01/08 10:49:17;;;;;;;43.37;15.73;;;;;;;2.17;100.00;60274.75;6257558;28;20236;-69
2023/01/08 10:52:26;;;;;;;44.00;15.10;;;;;;;-144.22;100.00;60274.75;6292710;28;20243;-70
2023/01/08 10:55:32;;;;;;;35.40;14.60;;;;;;;3.58;100.00;60274.75;6290058;28;20392;-70
2023/01/08 10:58:41;;;;;;;25.37;14.20;;;;;;;11.36;100.00;60274.75;6290501;28;20233;-69
2023/01/08 11:01:46;;;;;;;21.33;13.30;;;;;;;11.36;100.00;60274.75;6293772;28;20241;-69
2023/01/08 11:04:50;;;;;;;23.77;14.57;;;;;;;6.17;100.00;60274.75;6273449;28;20218;-69
2023/01/08 11:07:57;;;;;;;25.40;14.40;;;;;;;6.17;100.00;60274.75;6290480;28;20241;-70
2023/01/08 11:11:00;;;;;;;29.20;13.50;;;;;;;11.36;100.00;60274.75;6292561;28;20872;-69
2023/01/08 11:14:21;;;;;;;45.33;15.60;;;;;;;3.58;100.00;60274.75;6273175;28;20274;-69
2023/01/08 11:17:26;;;;;;;21.70;13.80;;;;;;;2.36;100.00;103558.78;6277895;28;20229;-69
2023/01/08 11:20:29;;;;;;;32.00;15.90;;;;;;;188.01;100.00;60274.75;6292710;28;20231;-70
2023/01/08 11:23:31;;;;;;;30.80;14.53;;;;;;;188.01;100.00;60274.75;6275468;28;20230;-70
2023/01/08 11:26:36;;;;;;;33.57;15.07;;;;;;;-144.22;100.00;60274.75;6257145;28;20329;-69
2023/01/08 11:29:47;;;;;;;57.00;17.20;;;;;;;188.01;100.00;60274.75;6257952;28;20346;-69
2023/01/08 11:33:08;;;;;;;59.70;17.47;;;;;;;188.01;100.00;60274.75;6293128;28;20316;-69
2023/01/08 11:36:19;;;;;;;53.43;16.50;;;;;;;11.36;100.00;60274.75;6290987;28;20705;-69
2023/01/08 11:39:21;;;;;;;24.70;14.37;;;;;;;11.36;100.00;60274.75;6292490;28;20231;-70
2023/01/08 11:42:32;;;;;;;27.43;14.83;;;;;;;-144.22;100.00;60274.75;6276272;28;20925;-70
2023/01/08 11:46:01;;;;;;;24.33;13.50;;;;;;;-144.22;100.00;60274.75;6292337;28;20624;-69
2023/01/08 11:49:15;;;;;;;22.57;13.33;;;;;;;-144.22;100.00;60274.75;6278088;28;20230;-70
2023/01/08 11:52:30;;;;;;;21.93;13.07;;;;;;;-144.22;100.00;60274.75;6289734;28;20596;-69
2023/01/08 11:56:01;;;;;;;22.77;14.23;;;;;;;-144.22;100.00;60274.75;6291543;28;20213;-70
2023/01/08 11:59:23;;;;;;;20.00;13.53;;;;;;;-144.22;100.00;60274.75;6290408;28;20335;-69
2023/01/08 12:02:50;;;;;;;26.30;15.63;;;;;;;-144.22;100.00;60274.75;6281234;28;20312;-69
2023/01/08 12:06:02;;;;;;;26.47;15.67;;;;;;;-144.22;100.00;60274.75;6261740;28;20749;-69
2023/01/08 12:09:32;;;;;;;26.57;15.67;;;;;;;-144.22;100.00;60274.75;6278432;28;20225;-70
2023/01/08 12:13:06;;;;;;;24.67;15.90;;;;;;;3.58;100.00;60274.75;6261347;28;20217;-70
2023/01/08 12:16:26;;;;;;;24.17;13.50;;;;;;;-144.22;100.00;60274.75;6279046;28;20221;-69
2023/01/08 12:19:51;;;;;;;23.93;13.13;;;;;;;2.62;100.00;60274.75;6290299;28;20319;-69
2023/01/08 12:23:06;;;;;;;24.70;13.80;;;;;;;-144.22;100.00;60274.75;6278291;28;20251;-70
2023/01/08 12:26:26;;;;;;;27.60;15.23;;;;;;;-144.22;100.00;60274.75;6274649;28;20584;-70
2023/01/08 12:29:43;;;;;;;24.10;13.83;;;;;;;3.58;100.00;60274.75;6292497;28;20368;-69
2023/01/08 12:33:03;;;;;;;28.63;15.93;;;;;;;2.76;100.00;60274.75;6272359;28;20316;-69
2023/01/08 12:36:13;;;;;;;22.33;13.97;;;;;;;2.68;100.00;60274.75;6289346;28;20237;-70
2023/01/08 12:39:37;;;;;;;21.43;13.87;;;;;;;2.66;100.00;60274.75;6315258;27;20230;-69
2023/01/08 12:42:42;;;;;;;19.70;13.20;;;;;;;6.17;100.00;60274.75;6297793;28;20227;-70
2023/01/08 12:45:54;;;;;;;21.43;13.20;;;;;;;-144.22;100.00;60274.75;6293860;28;20249;-69
2023/01/08 12:48:56;;;;;;;22.73;12.77;;;;;;;188.01;100.00;60274.75;6291077;28;20221;-69
2023/01/08 12:52:11;;;;;;;25.30;13.73;;;;;;;-144.22;100.00;60274.75;6257370;28;20601;-69
2023/01/08 12:55:38;;;;;;;22.63;13.67;;;;;;;-144.22;100.00;60274.75;6288091;28;20280;-69
2023/01/08 12:59:23;;;;;;;20.77;12.30;;;;;;;-144.22;100.00;60274.75;6287689;28;20638;-70
2023/01/08 13:02:55;;;;;;;22.83;13.47;;;;;;;-144.22;100.00;60274.75;6268332;28;20222;-70
2023/01/08 13:06:14;;;;;;;20.30;13.70;;;;;;;2.62;100.00;60274.75;6292141;28;20320;-69
2023/01/08 13:09:25;;;;;;;21.07;12.83;;;;;;;2.53;100.00;60274.75;6289643;28;20608;-70
2023/01/08 13:12:36;;;;;;;20.67;13.07;;;;;;;2.54;100.00;60274.75;6287493;28;20313;-70
2023/01/08 13:15:38;;;;;;;24.93;13.70;;;;;;;2.58;100.00;60274.75;6290432;28;20468;-69
2023/01/08 13:18:59;;;;;;;18.17;11.57;;;;;;;-144.22;100.00;60274.75;6284620;28;20577;-69
2023/01/08 13:22:02;;;;;;;22.03;13.93;;;;;;;2.63;100.00;60274.75;6288806;28;20237;-69
2023/01/08 13:25:16;;;;;;;20.23;12.40;;;;;;;-144.22;100.00;60274.75;6267927;28;20234;-70
2023/01/08 13:28:26;;;;;;;19.50;11.97;;;;;;;-144.22;100.00;60274.75;6261125;28;20812;-70
2023/01/08 13:31:36;;;;;;;18.53;11.07;;;;;;;2.79;100.00;60274.75;6253586;28;20238;-69
2023/01/08 13:34:41;;;;;;;21.10;12.60;;;;;;;-144.22;100.00;60274.75;6262761;28;20263;-70
2023/01/08 13:37:48;;;;;;;20.93;12.90;;;;;;;2.85;100.00;60274.75;6262710;28;20228;-70
2023/01/08 13:40:55;;;;;;;16.97;11.00;;;;;;;-144.22;100.00;60274.75;6261851;28;20232;-70
2023/01/08 13:44:04;;;;;;;19.50;11.87;;;;;;;2.90;100.00;60274.75;6263028;28;20682;-69
2023/01/08 13:47:28;;;;;;;19.57;12.00;;;;;;;2.96;100.00;60274.75;6264147;28;20219;-70
2023/01/08 13:50:31;;;;;;;18.03;10.97;;;;;;;2.96;100.00;60274.75;6265269;28;20231;-69
2023/01/08 13:53:33;;;;;;;15.47;10.57;;;;;;;3.09;100.00;60274.75;6261352;28;20227;-70
2023/01/08 13:56:35;;;;;;;18.47;11.80;;;;;;;3.25;100.00;60274.75;6263117;28;20317;-69
2023/01/08 13:59:47;;;;;;;20.83;13.03;;;;;;;-144.22;100.00;60274.75;6261310;28;20303;-70
2023/01/08 14:02:49;;;;;;;24.87;13.70;;;;;;;2.91;100.00;60274.75;6259972;28;20240;-69
2023/01/08 14:06:04;;;;;;;25.30;13.80;;;;;;;3.01;100.00;60274.75;6267964;28;20584;-69